sensor_id;sensor_type;location;lat;lon;timestamp;pressure;altitude;pressure_sealevel;temperature;humidity
54876;BME280;40764;48.472;8.166;2022-09-20T00:03:52;98787.31;;;7.22;91.16
54876;BME280;40764;48.472;8.166;2022-09-20T00:09:52;98776.44;;;7.22;90.47
54876;BME280;40764;48.472;8.166;2022-09-20T00:15:53;98774.06;;;6.99;91.53
54876;BME280;40764;48.472;8.166;2022-09-20T00:21:53;98776.22;;;6.97;92.90
54876;BME280;40764;48.472;8.166;2022-09-20T00:27:53;98772.41;;;7.25;92.00
54876;BME280;40764;48.472;8.166;2022-09-20T00:33:55;98779.53;;;7.36;91.56
54876;BME280;40764;48.472;8.166;2022-09-20T00:40:17;98772.31;;;7.52;90.94
54876;BME280;40764;48.472;8.166;2022-09-20T00:46:32;98769.03;;;7.50;90.71
54876;BME280;40764;48.472;8.166;2022-09-20T00:52:35;98768.53;;;7.53;90.85
54876;BME280;40764;48.472;8.166;2022-09-20T00:58:45;98767.88;;;7.40;91.23
54876;BME280;40764;48.472;8.166;2022-09-20T01:04:47;98767.06;;;7.40;91.28
54876;BME280;40764;48.472;8.166;2022-09-20T01:10:49;98768.16;;;7.39;90.83
54876;BME280;40764;48.472;8.166;2022-09-20T01:16:52;98778.50;;;7.42;90.98
54876;BME280;40764;48.472;8.166;2022-09-20T01:35:40;98761.28;;;7.31;92.50
54876;BME280;40764;48.472;8.166;2022-09-20T01:41:48;98771.00;;;7.22;92.05
54876;BME280;40764;48.472;8.166;2022-09-20T02:00:17;98769.03;;;7.12;91.09
54876;BME280;40764;48.472;8.166;2022-09-20T02:13:02;98761.75;;;6.64;92.40
54876;BME280;40764;48.472;8.166;2022-09-20T02:31:48;98746.53;;;6.63;91.55
54876;BME280;40764;48.472;8.166;2022-09-20T02:57:31;98729.63;;;6.56;91.06
54876;BME280;40764;48.472;8.166;2022-09-20T03:16:21;98759.88;;;6.65;90.06
54876;BME280;40764;48.472;8.166;2022-09-20T03:28:54;98760.81;;;6.05;91.48
54876;BME280;40764;48.472;8.166;2022-09-20T03:35:18;98767.00;;;6.00;92.84
54876;BME280;40764;48.472;8.166;2022-09-20T04:00:15;98792.78;;;6.41;90.26
54876;BME280;40764;48.472;8.166;2022-09-20T04:13:09;98795.91;;;5.89;91.97
54876;BME280;40764;48.472;8.166;2022-09-20T04:19:24;98796.44;;;6.08;91.43
54876;BME280;40764;48.472;8.166;2022-09-20T04:25:36;98793.06;;;6.01;91.11
54876;BME280;40764;48.472;8.166;2022-09-20T04:31:56;98801.97;;;5.97;91.18
54876;BME280;40764;48.472;8.166;2022-09-20T04:38:02;98801.34;;;5.89;90.68
54876;BME280;40764;48.472;8.166;2022-09-20T05:35:23;98843.25;;;5.82;89.84
54876;BME280;40764;48.472;8.166;2022-09-20T05:41:46;98852.22;;;5.82;91.17
54876;BME280;40764;48.472;8.166;2022-09-20T05:47:55;98850.47;;;6.10;90.07
54876;BME280;40764;48.472;8.166;2022-09-20T06:00:22;98850.19;;;5.89;90.75
54876;BME280;40764;48.472;8.166;2022-09-20T06:31:16;98841.78;;;7.00;90.25
54876;BME280;40764;48.472;8.166;2022-09-20T06:43:45;98837.78;;;7.40;89.54
54876;BME280;40764;48.472;8.166;2022-09-20T06:49:48;98837.47;;;7.68;89.94
54876;BME280;40764;48.472;8.166;2022-09-20T06:55:49;98835.31;;;7.75;90.05
54876;BME280;40764;48.472;8.166;2022-09-20T07:01:50;98826.09;;;8.24;89.25
54876;BME280;40764;48.472;8.166;2022-09-20T07:07:56;98831.13;;;8.42;88.57
54876;BME280;40764;48.472;8.166;2022-09-20T07:13:56;98830.09;;;8.58;88.32
54876;BME280;40764;48.472;8.166;2022-09-20T07:19:59;98831.50;;;8.71;88.16
54876;BME280;40764;48.472;8.166;2022-09-20T07:26:00;98837.03;;;8.96;88.64
54876;BME280;40764;48.472;8.166;2022-09-20T07:32:00;98839.22;;;9.10;88.16
54876;BME280;40764;48.472;8.166;2022-09-20T07:38:01;98841.72;;;9.42;87.38
54876;BME280;40764;48.472;8.166;2022-09-20T07:44:02;98833.25;;;9.94;84.99
54876;BME280;40764;48.472;8.166;2022-09-20T07:50:20;98832.94;;;10.21;84.75
54876;BME280;40764;48.472;8.166;2022-09-20T07:56:21;98844.63;;;10.47;83.27
54876;BME280;40764;48.472;8.166;2022-09-20T08:02:21;98844.81;;;10.61;82.85
54876;BME280;40764;48.472;8.166;2022-09-20T08:08:21;98846.81;;;11.04;82.27
54876;BME280;40764;48.472;8.166;2022-09-20T08:14:22;98852.72;;;11.16;82.11
54876;BME280;40764;48.472;8.166;2022-09-20T08:20:23;98851.09;;;11.55;80.27
54876;BME280;40764;48.472;8.166;2022-09-20T08:26:24;98848.75;;;11.38;81.82
54876;BME280;40764;48.472;8.166;2022-09-20T08:32:25;98850.78;;;11.22;82.44
54876;BME280;40764;48.472;8.166;2022-09-20T08:38:26;98848.19;;;11.41;82.50
54876;BME280;40764;48.472;8.166;2022-09-20T08:44:32;98864.19;;;11.63;80.34
54876;BME280;40764;48.472;8.166;2022-09-20T08:50:35;98847.75;;;11.97;78.15
54876;BME280;40764;48.472;8.166;2022-09-20T08:56:36;98851.81;;;12.28;76.75
54876;BME280;40764;48.472;8.166;2022-09-20T09:02:37;98856.50;;;12.52;76.18
54876;BME280;40764;48.472;8.166;2022-09-20T09:08:38;98845.53;;;12.76;75.75
54876;BME280;40764;48.472;8.166;2022-09-20T09:14:38;98845.22;;;13.39;73.73
54876;BME280;40764;48.472;8.166;2022-09-20T09:20:49;98836.88;;;13.25;74.79
54876;BME280;40764;48.472;8.166;2022-09-20T09:27:04;98840.88;;;13.84;72.76
54876;BME280;40764;48.472;8.166;2022-09-20T09:39:33;98828.88;;;14.40;68.58
54876;BME280;40764;48.472;8.166;2022-09-20T09:45:37;98834.22;;;14.04;68.81
54876;BME280;40764;48.472;8.166;2022-09-20T09:51:38;98833.31;;;13.94;69.65
54876;BME280;40764;48.472;8.166;2022-09-20T09:58:03;98833.31;;;14.08;69.08
54876;BME280;40764;48.472;8.166;2022-09-20T10:04:17;98824.09;;;14.45;67.79
54876;BME280;40764;48.472;8.166;2022-09-20T10:10:40;98827.38;;;14.75;64.39
54876;BME280;40764;48.472;8.166;2022-09-20T10:17:12;98817.88;;;14.81;63.69
54876;BME280;40764;48.472;8.166;2022-09-20T10:23:46;98808.44;;;15.09;61.04
54876;BME280;40764;48.472;8.166;2022-09-20T10:49:17;98811.72;;;15.56;52.99
54876;BME280;40764;48.472;8.166;2022-09-20T10:55:25;98803.19;;;16.11;53.34
54876;BME280;40764;48.472;8.166;2022-09-20T11:08:22;98817.22;;;15.70;51.66
54876;BME280;40764;48.472;8.166;2022-09-20T11:14:33;98818.69;;;15.54;51.26
54876;BME280;40764;48.472;8.166;2022-09-20T11:20:44;98838.09;;;15.62;51.57
54876;BME280;40764;48.472;8.166;2022-09-20T11:26:56;98838.84;;;15.40;49.74
54876;BME280;40764;48.472;8.166;2022-09-20T11:33:06;98840.28;;;15.38;50.51
54876;BME280;40764;48.472;8.166;2022-09-20T11:39:16;98844.03;;;15.42;51.43
54876;BME280;40764;48.472;8.166;2022-09-20T11:45:19;98849.00;;;15.54;50.96
54876;BME280;40764;48.472;8.166;2022-09-20T11:57:26;98842.69;;;15.98;49.98
54876;BME280;40764;48.472;8.166;2022-09-20T12:03:35;98825.66;;;15.96;49.91
54876;BME280;40764;48.472;8.166;2022-09-20T12:09:42;98809.78;;;16.32;48.40
54876;BME280;40764;48.472;8.166;2022-09-20T12:15:43;98808.47;;;16.30;47.44
54876;BME280;40764;48.472;8.166;2022-09-20T12:28:13;98795.84;;;16.86;45.71
54876;BME280;40764;48.472;8.166;2022-09-20T12:40:14;98783.38;;;17.14;45.52
54876;BME280;40764;48.472;8.166;2022-09-20T12:46:21;98786.31;;;17.18;45.42
54876;BME280;40764;48.472;8.166;2022-09-20T12:52:46;98789.63;;;16.71;42.87
54876;BME280;40764;48.472;8.166;2022-09-20T12:58:55;98787.25;;;16.87;44.88
54876;BME280;40764;48.472;8.166;2022-09-20T13:04:56;98784.00;;;16.46;45.99
54876;BME280;40764;48.472;8.166;2022-09-20T13:17:24;98780.81;;;16.13;45.82
54876;BME280;40764;48.472;8.166;2022-09-20T13:23:28;98791.94;;;15.99;45.51
54876;BME280;40764;48.472;8.166;2022-09-20T13:29:40;98784.63;;;16.34;45.10
54876;BME280;40764;48.472;8.166;2022-09-20T13:35:42;98786.00;;;16.54;43.58
54876;BME280;40764;48.472;8.166;2022-09-20T13:41:43;98784.22;;;16.18;44.26
54876;BME280;40764;48.472;8.166;2022-09-20T13:47:48;98783.97;;;16.77;43.62
54876;BME280;40764;48.472;8.166;2022-09-20T13:53:48;98787.19;;;16.70;44.37
54876;BME280;40764;48.472;8.166;2022-09-20T13:59:49;98774.44;;;16.43;45.07
54876;BME280;40764;48.472;8.166;2022-09-20T14:05:52;98780.22;;;16.72;45.42
54876;BME280;40764;48.472;8.166;2022-09-20T14:11:54;98778.31;;;16.82;44.78
54876;BME280;40764;48.472;8.166;2022-09-20T14:17:55;98778.50;;;17.20;44.31
54876;BME280;40764;48.472;8.166;2022-09-20T14:24:02;98772.78;;;17.59;43.86
54876;BME280;40764;48.472;8.166;2022-09-20T14:30:05;98771.00;;;17.46;43.78
54876;BME280;40764;48.472;8.166;2022-09-20T14:36:12;98769.88;;;16.78;45.00
54876;BME280;40764;48.472;8.166;2022-09-20T14:42:28;98771.97;;;16.33;45.15
54876;BME280;40764;48.472;8.166;2022-09-20T14:48:33;98787.31;;;16.17;45.95
54876;BME280;40764;48.472;8.166;2022-09-20T14:54:33;98782.94;;;15.85;47.66
54876;BME280;40764;48.472;8.166;2022-09-20T15:00:49;98785.06;;;15.43;47.78
54876;BME280;40764;48.472;8.166;2022-09-20T15:06:50;98789.09;;;15.37;48.65
54876;BME280;40764;48.472;8.166;2022-09-20T15:12:51;98788.00;;;15.24;49.97
54876;BME280;40764;48.472;8.166;2022-09-20T15:18:51;98797.56;;;14.91;51.10
54876;BME280;40764;48.472;8.166;2022-09-20T15:24:52;98798.69;;;14.90;51.89
54876;BME280;40764;48.472;8.166;2022-09-20T15:30:52;98801.69;;;14.79;52.34
54876;BME280;40764;48.472;8.166;2022-09-20T15:36:53;98810.25;;;14.64;53.67
54876;BME280;40764;48.472;8.166;2022-09-20T15:42:55;98817.34;;;14.38;55.72
54876;BME280;40764;48.472;8.166;2022-09-20T15:48:59;98822.84;;;14.24;58.26
54876;BME280;40764;48.472;8.166;2022-09-20T15:55:00;98817.63;;;13.95;59.35
54876;BME280;40764;48.472;8.166;2022-09-20T16:01:07;98811.91;;;13.91;61.44
54876;BME280;40764;48.472;8.166;2022-09-20T16:07:07;98824.69;;;13.82;62.19
54876;BME280;40764;48.472;8.166;2022-09-20T16:13:09;98826.69;;;13.63;64.14
54876;BME280;40764;48.472;8.166;2022-09-20T16:19:09;98828.47;;;13.86;63.01
54876;BME280;40764;48.472;8.166;2022-09-20T16:25:19;98824.50;;;13.79;63.43
54876;BME280;40764;48.472;8.166;2022-09-20T16:31:36;98828.25;;;13.69;67.72
54876;BME280;40764;48.472;8.166;2022-09-20T16:37:39;98828.72;;;13.39;67.63
54876;BME280;40764;48.472;8.166;2022-09-20T16:43:40;98837.50;;;13.41;68.95
54876;BME280;40764;48.472;8.166;2022-09-20T16:49:40;98834.53;;;13.37;70.23
54876;BME280;40764;48.472;8.166;2022-09-20T16:55:43;98843.72;;;13.27;70.78
54876;BME280;40764;48.472;8.166;2022-09-20T17:01:44;98847.13;;;13.19;71.25
54876;BME280;40764;48.472;8.166;2022-09-20T17:07:44;98844.22;;;13.29;71.41
54876;BME280;40764;48.472;8.166;2022-09-20T17:13:46;98842.88;;;13.08;74.00
54876;BME280;40764;48.472;8.166;2022-09-20T17:19:46;98851.09;;;12.65;77.29
54876;BME280;40764;48.472;8.166;2022-09-20T17:25:47;98854.34;;;12.49;78.78
54876;BME280;40764;48.472;8.166;2022-09-20T17:31:49;98860.44;;;12.40;80.64
54876;BME280;40764;48.472;8.166;2022-09-20T17:37:50;98868.31;;;12.23;82.76
54876;BME280;40764;48.472;8.166;2022-09-20T17:43:55;98864.03;;;11.83;85.65
54876;BME280;40764;48.472;8.166;2022-09-20T17:49:56;98877.94;;;11.58;86.22
54876;BME280;40764;48.472;8.166;2022-09-20T17:55:57;98886.97;;;11.53;86.72
54876;BME280;40764;48.472;8.166;2022-09-20T18:01:58;98889.50;;;11.44;87.00
54876;BME280;40764;48.472;8.166;2022-09-20T18:07:59;98891.66;;;11.47;86.81
54876;BME280;40764;48.472;8.166;2022-09-20T18:14:01;98896.41;;;11.37;87.60
54876;BME280;40764;48.472;8.166;2022-09-20T18:20:02;98904.50;;;11.08;88.29
54876;BME280;40764;48.472;8.166;2022-09-20T18:26:11;98904.13;;;11.25;87.97
54876;BME280;40764;48.472;8.166;2022-09-20T18:32:21;98915.31;;;11.33;87.02
54876;BME280;40764;48.472;8.166;2022-09-20T18:38:22;98915.91;;;11.20;87.70
54876;BME280;40764;48.472;8.166;2022-09-20T18:44:22;98921.34;;;11.25;87.89
54876;BME280;40764;48.472;8.166;2022-09-20T18:50:23;98923.84;;;11.22;88.60
54876;BME280;40764;48.472;8.166;2022-09-20T18:56:33;98922.47;;;11.29;87.83
54876;BME280;40764;48.472;8.166;2022-09-20T19:02:55;98929.28;;;11.27;88.28
54876;BME280;40764;48.472;8.166;2022-09-20T19:09:05;98933.94;;;11.26;88.59
54876;BME280;40764;48.472;8.166;2022-09-20T19:15:33;98934.59;;;11.08;89.27
54876;BME280;40764;48.472;8.166;2022-09-20T19:21:57;98945.16;;;11.25;88.14
54876;BME280;40764;48.472;8.166;2022-09-20T19:28:00;98949.78;;;11.34;87.44
54876;BME280;40764;48.472;8.166;2022-09-20T19:34:09;98951.88;;;10.93;89.49
54876;BME280;40764;48.472;8.166;2022-09-20T19:40:21;98955.38;;;11.09;89.23
54876;BME280;40764;48.472;8.166;2022-09-20T19:46:50;98959.25;;;11.03;90.45
54876;BME280;40764;48.472;8.166;2022-09-20T19:52:54;98955.41;;;11.04;90.37
54876;BME280;40764;48.472;8.166;2022-09-20T19:58:57;98958.44;;;10.97;90.52
54876;BME280;40764;48.472;8.166;2022-09-20T20:04:58;98962.28;;;11.01;90.35
54876;BME280;40764;48.472;8.166;2022-09-20T20:29:36;98969.72;;;10.80;90.73
54876;BME280;40764;48.472;8.166;2022-09-20T20:35:36;98979.84;;;10.80;90.56
54876;BME280;40764;48.472;8.166;2022-09-20T20:41:38;98978.19;;;10.79;90.74
54876;BME280;40764;48.472;8.166;2022-09-20T20:47:39;98980.66;;;10.80;91.06
54876;BME280;40764;48.472;8.166;2022-09-20T20:53:43;98977.66;;;10.77;91.07
54876;BME280;40764;48.472;8.166;2022-09-20T20:59:44;98985.88;;;10.72;91.32
54876;BME280;40764;48.472;8.166;2022-09-20T21:05:52;98984.78;;;10.63;92.08
54876;BME280;40764;48.472;8.166;2022-09-20T21:11:52;98989.97;;;10.69;91.65
54876;BME280;40764;48.472;8.166;2022-09-20T21:17:53;98990.81;;;10.70;91.69
54876;BME280;40764;48.472;8.166;2022-09-20T21:23:56;98986.72;;;10.57;91.56
54876;BME280;40764;48.472;8.166;2022-09-20T21:29:56;98985.38;;;10.44;92.29
54876;BME280;40764;48.472;8.166;2022-09-20T21:35:57;98990.81;;;10.60;91.80
54876;BME280;40764;48.472;8.166;2022-09-20T21:41:59;98988.66;;;10.41;93.03
54876;BME280;40764;48.472;8.166;2022-09-20T21:47:59;98989.75;;;10.45;91.94
54876;BME280;40764;48.472;8.166;2022-09-20T21:54:02;98990.59;;;10.41;92.37
54876;BME280;40764;48.472;8.166;2022-09-20T22:00:04;98984.56;;;10.23;92.84
54876;BME280;40764;48.472;8.166;2022-09-20T22:12:05;98982.94;;;10.28;92.64
54876;BME280;40764;48.472;8.166;2022-09-20T22:18:06;98992.22;;;10.21;93.00
54876;BME280;40764;48.472;8.166;2022-09-20T22:24:07;98979.34;;;10.12;93.13
54876;BME280;40764;48.472;8.166;2022-09-20T22:30:09;98974.44;;;10.14;92.83
54876;BME280;40764;48.472;8.166;2022-09-20T22:36:13;98978.78;;;10.05;92.29
54876;BME280;40764;48.472;8.166;2022-09-20T22:42:14;98974.97;;;9.85;92.88
54876;BME280;40764;48.472;8.166;2022-09-20T22:48:14;98974.41;;;9.73;93.51
54876;BME280;40764;48.472;8.166;2022-09-20T22:54:15;98984.22;;;9.64;92.64
54876;BME280;40764;48.472;8.166;2022-09-20T23:00:15;98976.22;;;9.27;94.66
54876;BME280;40764;48.472;8.166;2022-09-20T23:06:18;98971.31;;;9.34;93.32
54876;BME280;40764;48.472;8.166;2022-09-20T23:12:21;98972.78;;;8.89;94.32
54876;BME280;40764;48.472;8.166;2022-09-20T23:18:22;98969.84;;;9.01;93.88
54876;BME280;40764;48.472;8.166;2022-09-20T23:24:23;98970.88;;;8.90;92.72
54876;BME280;40764;48.472;8.166;2022-09-20T23:30:23;98962.06;;;8.67;93.98
54876;BME280;40764;48.472;8.166;2022-09-20T23:36:26;98962.88;;;8.68;92.72
54876;BME280;40764;48.472;8.166;2022-09-20T23:42:27;98971.28;;;8.61;92.50
54876;BME280;40764;48.472;8.166;2022-09-20T23:48:28;98965.41;;;8.37;93.35
54876;BME280;40764;48.472;8.166;2022-09-20T23:54:28;98968.41;;;8.09;93.33
